Time;durP1;ratioP1;P1;durP2;ratioP2;P2;SDS_P1;SDS_P2;PMS_P1;PMS_P2;Temp;Humidity;BMP_temperature;BMP_pressure;BME280_temperature;BME280_humidity;BME280_pressure;Samples;Min_cycle;Max_cycle;Signal;HPM_P1;HPM_P2
2021/03/10 00:02:22;;;;;;;10.18;5.28;;;;;;;-3.02;67.92;101130.69;4970483;28;20055;-49
2021/03/10 00:05:04;;;;;;;7.18;4.40;;;;;;;-3.03;68.45;101141.47;4970633;28;20055;-52
2021/03/10 00:07:31;;;;;;;11.80;5.30;;;;;;;-3.14;69.78;101141.44;4968675;28;20047;-52
2021/03/10 00:09:57;;;;;;;10.60;5.13;;;;;;;-3.13;69.85;101135.66;4970844;28;20047;-52
2021/03/10 00:12:24;;;;;;;10.00;5.47;;;;;;;-3.21;69.90;101131.59;4969851;28;20051;-51
2021/03/10 00:14:51;;;;;;;10.07;5.25;;;;;;;-3.10;69.80;101137.53;4970281;28;20047;-53
2021/03/10 00:17:18;;;;;;;6.50;4.88;;;;;;;-3.20;70.22;101132.47;4971473;28;20370;-50
2021/03/10 00:19:45;;;;;;;10.05;5.22;;;;;;;-3.34;71.12;101134.66;4969397;28;20058;-50
2021/03/10 00:22:12;;;;;;;8.93;5.00;;;;;;;-3.25;71.09;101129.56;4971344;28;20053;-48
2021/03/10 00:24:39;;;;;;;10.68;5.00;;;;;;;-3.42;71.72;101130.63;4969364;28;20063;-53
2021/03/10 00:27:05;;;;;;;9.00;5.03;;;;;;;-3.42;72.17;101133.13;4971007;28;20057;-50
2021/03/10 00:29:32;;;;;;;8.07;5.03;;;;;;;-3.44;72.08;101133.72;4969566;28;20054;-49
2021/03/10 00:31:59;;;;;;;10.18;4.90;;;;;;;-3.46;71.95;101127.72;4969397;28;20585;-53
2021/03/10 00:34:26;;;;;;;10.13;5.18;;;;;;;-3.34;71.10;101128.78;4964651;28;20101;-47
2021/03/10 00:36:53;;;;;;;8.10;4.57;;;;;;;-3.37;71.04;101136.91;4969818;28;20061;-54
2021/03/10 00:39:20;;;;;;;11.70;5.00;;;;;;;-3.38;71.34;101137.63;4970000;28;20049;-49
2021/03/10 00:41:46;;;;;;;12.13;4.70;;;;;;;-3.34;70.97;101134.66;4969255;28;20045;-48
2021/03/10 00:44:13;;;;;;;9.32;4.95;;;;;;;-3.47;70.47;101141.81;4967211;28;20046;-47
2021/03/10 00:46:39;;;;;;;9.60;5.32;;;;;;;-3.58;70.51;101132.50;4968680;28;20051;-51
2021/03/10 00:49:06;;;;;;;8.13;5.13;;;;;;;-3.60;71.75;101141.50;4970300;28;20082;-49
2021/03/10 00:51:33;;;;;;;8.52;5.00;;;;;;;-3.62;73.04;101138.84;4968622;28;20874;-52
2021/03/10 00:53:59;;;;;;;9.93;5.60;;;;;;;-3.63;74.27;101131.22;4970083;28;20054;-50
2021/03/10 00:56:26;;;;;;;7.05;4.68;;;;;;;-3.55;74.56;101127.78;4964424;28;20455;-51
2021/03/10 00:58:52;;;;;;;9.70;5.22;;;;;;;-3.75;74.15;101128.50;4969245;28;20655;-48
2021/03/10 01:01:19;;;;;;;10.23;4.78;;;;;;;-3.68;74.06;101123.31;4969853;28;20095;-52
2021/03/10 01:03:45;;;;;;;8.60;5.30;;;;;;;-3.77;74.05;101124.09;4968761;28;20058;-51
2021/03/10 01:06:12;;;;;;;12.07;4.82;;;;;;;-3.80;74.01;101122.19;4969851;28;20504;-51
2021/03/10 01:08:38;;;;;;;10.32;4.97;;;;;;;-3.77;72.93;101116.59;4968488;28;20069;-49
2021/03/10 01:11:05;;;;;;;8.25;4.90;;;;;;;-3.87;73.37;101115.78;4969909;28;20797;-48
2021/03/10 01:13:32;;;;;;;7.13;4.82;;;;;;;-3.70;74.61;101113.88;4968781;28;20051;-50
2021/03/10 01:15:58;;;;;;;11.18;5.45;;;;;;;-3.89;74.54;101121.38;4968166;28;20061;-53
2021/03/10 01:18:25;;;;;;;11.27;5.80;;;;;;;-3.90;75.86;101120.50;4967921;28;20046;-54
2021/03/10 01:20:52;;;;;;;13.65;5.40;;;;;;;-3.94;75.38;101115.97;4968706;28;20121;-49
2021/03/10 01:23:18;;;;;;;12.32;5.68;;;;;;;-3.89;75.50;101121.38;4969457;28;20053;-47
2021/03/10 01:25:45;;;;;;;10.15;5.35;;;;;;;-4.04;75.05;101120.00;4967990;28;20065;-51
2021/03/10 01:28:11;;;;;;;12.20;5.63;;;;;;;-4.07;75.94;101117.22;4969855;28;20058;-46
2021/03/10 01:30:38;;;;;;;10.93;5.70;;;;;;;-3.81;74.25;101112.94;4968143;28;20465;-48
2021/03/10 01:33:04;;;;;;;10.75;4.82;;;;;;;-3.96;73.47;101119.09;4969371;28;20557;-49
2021/03/10 01:35:31;;;;;;;11.98;5.82;;;;;;;-4.10;74.21;101123.72;4967827;28;20047;-51
2021/03/10 01:37:58;;;;;;;8.98;5.15;;;;;;;-4.08;74.16;101125.47;4967561;28;20054;-49
2021/03/10 01:40:25;;;;;;;10.68;5.20;;;;;;;-4.13;74.17;101120.94;4967885;28;20509;-53
2021/03/10 01:42:51;;;;;;;11.77;5.45;;;;;;;-4.17;74.24;101123.00;4967800;28;20043;-51
2021/03/10 01:45:18;;;;;;;11.40;5.18;;;;;;;-4.17;73.81;101125.50;4968699;28;20137;-50
2021/03/10 01:47:47;;;;;;;10.25;5.40;;;;;;;-4.13;73.32;101118.44;4967219;28;20050;-50
2021/03/10 01:50:18;;;;;;;10.13;5.50;;;;;;;-4.24;73.65;101118.22;4965761;28;20073;-51
2021/03/10 01:52:46;;;;;;;8.07;5.03;;;;;;;-4.25;73.61;101119.84;4967165;28;20055;-50
2021/03/10 01:55:13;;;;;;;10.70;5.63;;;;;;;-4.31;74.02;101124.25;4965822;28;20516;-50
2021/03/10 01:57:40;;;;;;;10.02;5.32;;;;;;;-4.22;74.27;101104.22;4967186;28;20042;-51
2021/03/10 02:00:09;;;;;;;10.68;4.80;;;;;;;-4.33;74.72;101108.25;4969087;28;20047;-51
2021/03/10 02:02:36;;;;;;;10.85;5.72;;;;;;;-4.36;74.73;101113.84;4966961;28;20065;-51
2021/03/10 02:05:03;;;;;;;8.35;5.30;;;;;;;-4.26;74.20;101107.19;4968805;28;20050;-49
2021/03/10 02:08:11;;;;;;;8.52;5.10;;;;;;;-4.37;74.73;101112.09;4966858;28;20054;-49
2021/03/10 02:10:44;;;;;;;10.65;5.50;;;;;;;-4.32;75.45;101110.00;4964342;28;20054;-50
2021/03/10 02:13:40;;;;;;;9.10;4.93;;;;;;;-4.22;74.67;101109.22;4968503;28;20077;-48
2021/03/10 02:16:17;;;;;;;9.13;5.15;;;;;;;-4.36;75.23;101115.47;4968316;28;20483;-49
2021/03/10 02:18:59;;;;;;;12.13;6.05;;;;;;;-4.51;75.44;101112.44;4966982;28;20046;-51
2021/03/10 02:22:01;;;;;;;15.93;7.25;;;;;;;-4.52;75.15;101113.19;4966820;28;20050;-49
2021/03/10 02:24:52;;;;;;;13.68;6.45;;;;;;;-4.47;75.11;101109.50;4961020;28;20039;-51
2021/03/10 02:27:43;;;;;;;11.77;5.55;;;;;;;-4.52;74.79;101109.81;4966342;28;20046;-49
2021/03/10 02:30:22;;;;;;;16.63;6.68;;;;;;;-4.57;75.55;101116.00;4967358;28;20070;-52
2021/03/10 02:33:02;;;;;;;12.80;6.53;;;;;;;-4.57;75.56;101113.50;4967315;28;20046;-47
2021/03/10 02:35:30;;;;;;;13.48;6.95;;;;;;;-4.62;75.99;101116.47;4962701;28;20054;-47
2021/03/10 02:38:04;;;;;;;11.85;6.43;;;;;;;-4.55;75.12;101117.91;4967623;28;20054;-49
2021/03/10 02:40:32;;;;;;;11.40;6.55;;;;;;;-4.63;75.10;101118.78;4963068;28;20054;-51
2021/03/10 02:42:59;;;;;;;12.20;6.25;;;;;;;-4.64;75.72;101117.03;4966641;28;20058;-52
2021/03/10 02:45:27;;;;;;;11.82;6.25;;;;;;;-4.59;76.32;101115.84;4966416;28;20047;-51
2021/03/10 02:47:55;;;;;;;9.65;6.65;;;;;;;-4.56;75.66;101116.13;4967277;28;20568;-47
2021/03/10 02:50:23;;;;;;;13.25;6.65;;;;;;;-4.55;75.27;101109.53;4966789;28;20050;-51
2021/03/10 02:52:50;;;;;;;11.25;6.45;;;;;;;-4.56;75.60;101113.63;4967026;28;20046;-51
2021/03/10 02:55:18;;;;;;;12.48;6.10;;;;;;;-4.58;75.07;101115.09;4967784;28;20042;-47
2021/03/10 02:57:45;;;;;;;14.27;6.85;;;;;;;-4.53;75.37;101111.44;4966853;28;20057;-48
2021/03/10 03:00:23;;;;;;;12.52;6.32;;;;;;;-4.38;74.15;101112.81;4968215;28;20405;-48
2021/03/10 03:02:50;;;;;;;15.00;7.10;;;;;;;-4.47;74.19;101117.00;4966875;28;20062;-47
2021/03/10 03:05:17;;;;;;;13.30;5.75;;;;;;;-4.50;73.63;101121.69;4967770;28;20046;-46
2021/03/10 03:07:46;;;;;;;12.15;6.30;;;;;;;-4.62;74.72;101106.47;4966519;28;20051;-49
2021/03/10 03:10:19;;;;;;;12.50;6.05;;;;;;;-4.61;75.18;101107.34;4964945;28;20057;-50
2021/03/10 03:12:47;;;;;;;13.18;7.00;;;;;;;-4.61;74.94;101107.34;4966552;28;20093;-49
2021/03/10 03:15:19;;;;;;;11.05;6.07;;;;;;;-4.59;74.68;101113.34;4965106;28;20054;-47
2021/03/10 03:17:46;;;;;;;11.75;6.18;;;;;;;-4.61;74.77;101114.84;4966436;28;20545;-47
2021/03/10 03:20:15;;;;;;;13.27;6.65;;;;;;;-4.57;74.69;101116.88;4964986;28;20426;-47
2021/03/10 03:22:51;;;;;;;14.05;6.60;;;;;;;-4.64;75.02;101115.41;4966317;28;20417;-49
2021/03/10 03:25:19;;;;;;;12.95;6.68;;;;;;;-4.65;75.74;101113.66;4965448;28;20050;-48
2021/03/10 03:27:56;;;;;;;12.48;6.60;;;;;;;-4.73;76.10;101112.06;4966461;28;20046;-49
2021/03/10 03:30:25;;;;;;;10.48;6.13;;;;;;;-4.80;76.55;101116.38;4965723;28;20042;-51
2021/03/10 03:32:57;;;;;;;12.45;6.72;;;;;;;-4.70;75.43;101121.47;4966581;28;20054;-51
2021/03/10 03:35:24;;;;;;;13.18;6.88;;;;;;;-4.73;75.57;101111.19;4966674;28;20054;-51
2021/03/10 03:37:53;;;;;;;11.57;6.47;;;;;;;-4.68;74.49;101112.50;4965827;28;20051;-50
2021/03/10 03:40:23;;;;;;;10.07;6.18;;;;;;;-4.75;74.74;101113.56;4967875;28;20046;-50
2021/03/10 03:42:51;;;;;;;10.77;6.43;;;;;;;-4.61;74.78;101107.34;4970047;28;20051;-48
2021/03/10 03:45:22;;;;;;;12.15;6.60;;;;;;;-4.72;75.08;101117.94;4970947;28;20074;-50
2021/03/10 03:47:57;;;;;;;14.60;6.95;;;;;;;-4.62;75.78;101123.09;4969782;28;20042;-50
2021/03/10 03:50:26;;;;;;;14.75;7.22;;;;;;;-4.65;75.93;101118.66;4969665;28;20078;-45
2021/03/10 03:52:53;;;;;;;12.20;6.57;;;;;;;-4.73;76.07;101122.06;4969831;28;20050;-47
2021/03/10 03:55:20;;;;;;;11.18;6.60;;;;;;;-4.91;76.32;101122.84;4970494;28;20050;-48
2021/03/10 03:57:47;;;;;;;15.68;7.63;;;;;;;-4.93;77.56;101124.34;4969558;28;20043;-48
2021/03/10 04:00:17;;;;;;;12.93;7.05;;;;;;;-5.01;77.79;101126.09;4967854;28;20054;-50
2021/03/10 04:02:45;;;;;;;12.43;6.90;;;;;;;-5.02;78.16;101119.34;4969829;28;20448;-48
2021/03/10 04:05:15;;;;;;;12.25;7.00;;;;;;;-5.06;78.71;101124.78;4971351;28;20050;-48
2021/03/10 04:07:56;;;;;;;12.18;6.60;;;;;;;-4.94;79.15;101128.44;4966811;28;20398;-48
2021/03/10 04:10:28;;;;;;;14.80;7.28;;;;;;;-4.96;78.50;101124.03;4962319;28;20069;-53
2021/03/10 04:12:56;;;;;;;14.10;7.20;;;;;;;-4.91;78.04;101127.84;4966908;28;20047;-48
2021/03/10 04:15:25;;;;;;;10.15;5.70;;;;;;;-4.94;77.66;101138.44;4969846;28;20058;-47
2021/03/10 04:17:52;;;;;;;13.35;7.10;;;;;;;-5.02;78.19;101135.94;4970153;28;20057;-46
2021/03/10 04:20:21;;;;;;;13.27;6.72;;;;;;;-5.05;78.11;101135.66;4970832;28;20813;-46
2021/03/10 04:22:48;;;;;;;13.70;6.85;;;;;;;-5.04;78.27;101137.41;4967608;28;20696;-50
2021/03/10 04:25:16;;;;;;;14.75;8.05;;;;;;;-5.07;78.46;101137.13;4964211;28;20800;-48
2021/03/10 04:27:43;;;;;;;13.43;7.00;;;;;;;-5.15;79.17;101138.91;4966077;28;20142;-47
2021/03/10 04:30:12;;;;;;;15.13;7.68;;;;;;;-5.17;78.87;101135.41;4973156;28;20055;-50
2021/03/10 04:32:39;;;;;;;11.63;7.60;;;;;;;-5.18;80.06;101138.59;4965130;28;20058;-48
2021/03/10 04:35:07;;;;;;;14.15;7.40;;;;;;;-5.18;80.68;101138.59;4969188;28;20055;-51
2021/03/10 04:37:34;;;;;;;16.42;7.97;;;;;;;-5.03;79.63;101134.19;4968984;28;20053;-51
2021/03/10 04:40:00;;;;;;;16.35;7.05;;;;;;;-5.06;79.50;101139.78;4969788;28;20042;-49
2021/03/10 04:42:27;;;;;;;12.55;7.60;;;;;;;-5.02;79.22;101139.31;4949147;28;20058;-52
2021/03/10 04:44:54;;;;;;;14.13;6.85;;;;;;;-5.13;78.91;101132.41;4971502;28;20808;-51
2021/03/10 04:47:20;;;;;;;17.58;8.35;;;;;;;-5.19;77.65;101136.84;4971448;28;20058;-53
2021/03/10 04:49:47;;;;;;;14.65;8.88;;;;;;;-5.23;78.58;101142.28;4970783;28;20429;-47
2021/03/10 04:52:19;;;;;;;12.25;7.63;;;;;;;-5.09;77.91;101144.47;4970750;28;20042;-48
2021/03/10 04:54:46;;;;;;;18.33;8.38;;;;;;;-5.17;78.45;101142.88;4970768;28;20043;-47
2021/03/10 04:57:12;;;;;;;12.38;7.68;;;;;;;-5.25;78.11;101152.13;4967899;28;20046;-51
2021/03/10 04:59:39;;;;;;;16.15;9.05;;;;;;;-5.23;78.64;101147.25;4970298;28;20046;-48
2021/03/10 05:02:05;;;;;;;15.07;8.20;;;;;;;-5.20;78.36;101147.56;4971829;28;20057;-51
2021/03/10 05:04:32;;;;;;;13.82;7.78;;;;;;;-5.24;78.19;101150.50;4970188;28;20050;-48
2021/03/10 05:06:59;;;;;;;18.52;8.93;;;;;;;-5.25;78.30;101152.13;4970158;28;20408;-45
2021/03/10 05:09:25;;;;;;;18.17;8.65;;;;;;;-5.38;78.41;101150.06;4968050;28;20055;-45
2021/03/10 05:11:52;;;;;;;15.23;8.27;;;;;;;-5.32;78.74;101146.38;4970672;28;20051;-46
2021/03/10 05:14:18;;;;;;;18.67;8.50;;;;;;;-5.38;78.60;101144.19;4971404;28;20492;-48
2021/03/10 05:16:45;;;;;;;15.75;7.70;;;;;;;-5.27;78.24;101152.69;4970007;28;20047;-48
2021/03/10 05:19:11;;;;;;;21.40;8.43;;;;;;;-5.24;78.48;101153.88;4971513;28;20055;-50
2021/03/10 05:21:38;;;;;;;15.27;7.65;;;;;;;-5.10;77.85;101164.31;4970150;28;20055;-47
2021/03/10 05:24:05;;;;;;;17.33;9.00;;;;;;;-5.21;78.69;101155.81;4969757;28;20091;-53
2021/03/10 05:26:31;;;;;;;15.18;7.85;;;;;;;-5.15;78.08;101168.84;4969667;28;20050;-48
2021/03/10 05:28:58;;;;;;;16.15;8.90;;;;;;;-5.22;79.06;101154.03;4971067;28;20050;-46
2021/03/10 05:31:24;;;;;;;16.73;8.43;;;;;;;-5.43;79.62;101155.34;4968183;28;20051;-51
2021/03/10 05:33:51;;;;;;;14.98;7.72;;;;;;;-4.95;77.79;101159.13;4967741;28;20054;-45
2021/03/10 05:36:21;;;;;;;15.90;8.15;;;;;;;-5.14;78.34;101160.63;4970802;28;20054;-50
2021/03/10 05:38:50;;;;;;;16.95;8.60;;;;;;;-5.41;78.17;101159.78;4970105;28;20153;-51
2021/03/10 05:41:17;;;;;;;14.52;8.43;;;;;;;-5.36;78.82;101162.72;4970771;28;20042;-49
2021/03/10 05:43:44;;;;;;;19.67;9.93;;;;;;;-5.39;79.17;101169.88;4969665;28;20042;-49
2021/03/10 05:46:11;;;;;;;16.20;9.00;;;;;;;-5.30;79.53;101177.38;4970770;28;20065;-49
2021/03/10 05:48:39;;;;;;;16.05;8.35;;;;;;;-4.99;79.21;101179.56;4968947;28;20134;-50
2021/03/10 05:51:07;;;;;;;16.27;8.77;;;;;;;-4.96;77.41;101177.34;4970280;28;20532;-51
2021/03/10 05:53:40;;;;;;;15.70;8.98;;;;;;;-5.35;79.87;101171.94;4968505;28;20051;-49
2021/03/10 05:56:07;;;;;;;15.32;7.97;;;;;;;-5.27;79.45;101172.66;4970044;28;20391;-48
2021/03/10 05:58:34;;;;;;;14.15;7.72;;;;;;;-5.40;81.17;101166.50;4968858;28;20047;-48
2021/03/10 06:01:00;;;;;;;20.27;9.27;;;;;;;-5.41;81.52;101164.75;4970527;28;20448;-48
2021/03/10 06:03:27;;;;;;;17.60;9.05;;;;;;;-5.42;81.79;101172.06;4963770;28;20047;-45
2021/03/10 06:06:04;;;;;;;16.50;9.68;;;;;;;-5.35;81.84;101176.94;4968925;28;20054;-50
2021/03/10 06:08:34;;;;;;;16.38;9.13;;;;;;;-5.39;82.77;101178.25;4965138;28;20046;-49
2021/03/10 06:11:01;;;;;;;14.73;8.10;;;;;;;-5.31;83.53;101184.00;4969289;28;20050;-47
2021/03/10 06:13:30;;;;;;;17.45;8.25;;;;;;;-5.10;82.80;101182.66;4964553;28;20684;-46
2021/03/10 06:15:59;;;;;;;18.25;10.57;;;;;;;-5.03;83.00;101181.63;4969863;28;20042;-45
2021/03/10 06:18:31;;;;;;;33.72;18.35;;;;;;;-5.15;82.51;101189.69;4968612;28;20424;-46
2021/03/10 06:21:12;;;;;;;27.83;10.63;;;;;;;-5.08;83.38;101183.69;4969562;28;20046;-46
2021/03/10 06:24:01;;;;;;;21.38;9.40;;;;;;;-5.06;83.27;101187.22;4966083;28;20057;-44
2021/03/10 06:26:30;;;;;;;20.33;9.77;;;;;;;-4.90;82.91;101185.44;4964149;28;20074;-45
2021/03/10 06:29:01;;;;;;;24.10;10.40;;;;;;;-4.84;83.28;101190.13;4969652;28;20386;-50
2021/03/10 06:31:31;;;;;;;24.98;11.48;;;;;;;-4.64;80.56;101179.50;4964348;28;20046;-47
2021/03/10 06:34:09;;;;;;;19.98;10.23;;;;;;;-4.42;79.76;101179.88;4969815;28;20058;-45
2021/03/10 06:36:40;;;;;;;18.98;10.50;;;;;;;-4.26;78.15;101193.03;4965124;28;20045;-48
2021/03/10 06:39:09;;;;;;;21.58;10.68;;;;;;;-4.25;77.84;101192.34;4970044;28;20058;-46
2021/03/10 06:41:38;;;;;;;27.38;12.50;;;;;;;-4.10;78.47;101190.34;4968231;28;20057;-46
2021/03/10 06:44:15;;;;;;;22.80;10.07;;;;;;;-4.05;77.51;101194.16;4969965;28;20054;-48
2021/03/10 06:47:01;;;;;;;16.83;9.93;;;;;;;-3.97;77.19;101204.88;4967977;28;20716;-45
2021/03/10 06:49:30;;;;;;;22.70;11.35;;;;;;;-3.64;75.79;101200.41;4964070;28;20043;-51
2021/03/10 06:52:18;;;;;;;20.23;9.90;;;;;;;-3.61;74.68;101207.28;4968973;28;20050;-46
2021/03/10 06:54:55;;;;;;;18.92;10.07;;;;;;;-3.50;73.99;101208.28;4965611;28;20069;-45
2021/03/10 06:57:21;;;;;;;19.38;9.48;;;;;;;-3.29;73.56;101215.19;4964121;28;20046;-46
2021/03/10 06:59:53;;;;;;;21.65;11.07;;;;;;;-3.20;73.22;101207.59;4965110;28;20429;-43
2021/03/10 07:02:24;;;;;;;25.25;10.63;;;;;;;-3.24;72.77;101208.94;4950244;28;20428;-44
2021/03/10 07:04:56;;;;;;;19.73;9.90;;;;;;;-3.29;71.89;101211.81;4967587;28;20113;-44
2021/03/10 07:07:28;;;;;;;20.77;10.82;;;;;;;-2.98;72.04;101215.41;4967849;28;20047;-50
2021/03/10 07:09:55;;;;;;;17.35;9.75;;;;;;;-2.61;70.32;101212.81;4968177;28;20074;-47
2021/03/10 07:12:24;;;;;;;16.77;9.05;;;;;;;-2.69;70.16;101226.31;4968388;28;20050;-45
2021/03/10 07:14:50;;;;;;;19.25;9.55;;;;;;;-2.68;71.26;101227.19;4968719;28;20513;-47
2021/03/10 07:17:19;;;;;;;17.27;10.05;;;;;;;-2.70;70.67;101229.56;4973013;28;20130;-47
2021/03/10 07:19:49;;;;;;;16.83;9.30;;;;;;;-2.61;70.25;101230.38;4971644;28;20054;-46
2021/03/10 07:22:33;;;;;;;16.77;9.43;;;;;;;-2.16;68.30;101235.06;4970528;28;20054;-49
2021/03/10 07:25:06;;;;;;;22.27;10.60;;;;;;;-2.28;67.08;101234.03;4971815;28;20142;-46
2021/03/10 07:27:40;;;;;;;26.35;11.23;;;;;;;-2.17;66.77;101227.41;4968207;28;20054;-47
2021/03/10 07:30:08;;;;;;;19.05;10.07;;;;;;;-1.99;67.73;101241.50;4973125;28;20054;-44
2021/03/10 07:32:35;;;;;;;18.30;10.15;;;;;;;-1.92;67.43;101238.75;4971675;28;20047;-49
2021/03/10 07:35:07;;;;;;;15.98;9.65;;;;;;;-1.84;65.86;101240.28;4973445;28;20120;-48
2021/03/10 07:37:35;;;;;;;19.55;10.35;;;;;;;-1.85;67.40;101246.06;4971347;28;20078;-52
2021/03/10 07:40:08;;;;;;;20.80;11.25;;;;;;;-1.72;65.81;101232.88;4973102;28;20053;-50
2021/03/10 07:42:38;;;;;;;18.13;9.75;;;;;;;-1.71;64.49;101239.69;4971642;28;20057;-46
2021/03/10 07:45:26;;;;;;;30.90;14.73;;;;;;;-1.30;64.65;101234.66;4970857;28;20127;-49
2021/03/10 07:48:07;;;;;;;21.65;12.50;;;;;;;-1.46;65.26;101239.19;4968716;28;20122;-50
2021/03/10 07:50:51;;;;;;;20.00;11.48;;;;;;;-1.10;64.93;101233.78;4965604;28;20146;-45
2021/03/10 07:53:18;;;;;;;17.38;11.00;;;;;;;-1.12;64.13;101241.19;4970210;28;20332;-47
2021/03/10 07:55:46;;;;;;;26.55;12.40;;;;;;;-1.05;63.56;101251.00;4970591;28;20047;-46
2021/03/10 07:58:26;;;;;;;19.10;9.88;;;;;;;-0.74;61.50;101250.03;4965153;28;20046;-45
2021/03/10 08:00:52;;;;;;;20.60;11.05;;;;;;;-0.84;62.26;101248.41;4967457;28;20047;-47
2021/03/10 08:03:34;;;;;;;23.65;10.98;;;;;;;-0.24;61.44;101255.66;4972245;28;20054;-46
2021/03/10 08:06:05;;;;;;;15.55;9.63;;;;;;;-0.08;60.90;101259.47;4971326;28;20049;-47
2021/03/10 08:08:37;;;;;;;24.80;10.82;;;;;;;0.87;57.74;101259.06;4970842;28;20058;-46
2021/03/10 08:11:17;;;;;;;20.83;10.52;;;;;;;1.14;56.55;101267.75;4971247;28;20046;-46
2021/03/10 08:13:47;;;;;;;19.42;10.60;;;;;;;1.89;53.85;101267.16;4970773;28;20050;-45
2021/03/10 08:16:13;;;;;;;21.02;10.70;;;;;;;3.64;49.26;101266.94;4964797;28;20046;-47
2021/03/10 08:18:47;;;;;;;18.70;10.60;;;;;;;3.83;46.49;101264.78;4966696;28;20043;-47
2021/03/10 08:21:19;;;;;;;18.27;9.88;;;;;;;5.01;44.42;101261.66;4966923;28;20121;-47
2021/03/10 08:23:47;;;;;;;27.00;10.70;;;;;;;5.02;41.68;101264.28;4968397;28;20055;-51
2021/03/10 08:26:17;;;;;;;20.10;10.52;;;;;;;2.96;47.16;101262.66;4962107;28;20459;-44
2021/03/10 08:28:43;;;;;;;24.17;11.32;;;;;;;2.95;47.67;101262.53;4969632;28;20051;-48
2021/03/10 08:31:11;;;;;;;17.23;10.43;;;;;;;3.74;46.39;101270.13;4971827;28;20042;-47
2021/03/10 08:33:46;;;;;;;18.55;10.93;;;;;;;3.27;46.89;101277.25;4970075;28;20046;-47
2021/03/10 08:36:13;;;;;;;19.63;11.05;;;;;;;3.59;46.63;101274.25;4971641;28;20050;-45
2021/03/10 08:38:40;;;;;;;20.52;12.13;;;;;;;4.26;45.05;101265.75;4962185;28;20073;-49
2021/03/10 08:41:09;;;;;;;21.00;11.05;;;;;;;4.24;45.17;101262.22;4968420;28;20619;-49
2021/03/10 08:43:36;;;;;;;20.25;10.07;;;;;;;3.76;45.16;101271.13;4970055;28;20047;-47
2021/03/10 08:46:03;;;;;;;20.02;10.02;;;;;;;3.93;44.08;101267.13;4971557;28;20417;-45
2021/03/10 08:48:33;;;;;;;19.67;10.25;;;;;;;3.78;43.71;101273.75;4970381;28;20121;-47
2021/03/10 08:51:02;;;;;;;16.23;8.80;;;;;;;3.64;44.00;101264.41;4970129;28;20051;-46
2021/03/10 08:53:29;;;;;;;16.83;9.35;;;;;;;4.08;43.84;101264.63;4965951;28;20047;-51
2021/03/10 08:56:07;;;;;;;17.70;9.13;;;;;;;4.08;45.29;101259.56;4970581;28;20499;-48
2021/03/10 08:58:34;;;;;;;18.63;10.10;;;;;;;4.47;44.08;101255.13;4966455;28;20066;-47
2021/03/10 09:01:11;;;;;;;17.65;9.98;;;;;;;4.16;44.86;101243.16;4971472;28;20113;-45
2021/03/10 09:03:43;;;;;;;17.65;9.45;;;;;;;4.51;43.66;101244.38;4966944;28;20153;-47
2021/03/10 09:06:10;;;;;;;16.70;8.10;;;;;;;4.45;42.42;101241.50;4971167;28;20042;-49
2021/03/10 09:08:37;;;;;;;15.73;8.80;;;;;;;4.18;43.47;101240.72;4969995;28;20051;-49
2021/03/10 09:11:04;;;;;;;14.32;6.90;;;;;;;4.53;42.13;101242.78;4971202;28;20061;-48
2021/03/10 09:13:30;;;;;;;11.55;6.68;;;;;;;4.53;41.16;101236.09;4969666;28;20073;-45
2021/03/10 09:16:08;;;;;;;11.45;7.80;;;;;;;3.69;43.09;101236.06;4963610;28;20492;-45
2021/03/10 09:18:36;;;;;;;12.93;6.60;;;;;;;4.44;40.65;101237.22;4964434;28;20503;-46
2021/03/10 09:21:04;;;;;;;11.50;7.07;;;;;;;4.77;39.94;101244.25;4963786;28;20042;-45
2021/03/10 09:23:32;;;;;;;12.55;7.45;;;;;;;4.60;40.93;101239.84;4969395;28;20442;-48
2021/03/10 09:25:58;;;;;;;13.40;7.28;;;;;;;4.61;42.34;101241.59;4970205;28;20046;-43
2021/03/10 09:28:33;;;;;;;14.30;7.15;;;;;;;5.07;39.85;101236.63;4969285;28;20051;-48
2021/03/10 09:31:10;;;;;;;15.57;7.53;;;;;;;5.33;39.30;101246.56;4964360;28;20057;-44
2021/03/10 09:33:40;;;;;;;19.55;9.43;;;;;;;5.09;39.92;101248.63;4966371;28;20416;-45
2021/03/10 09:36:08;;;;;;;13.52;7.40;;;;;;;5.62;39.25;101245.63;4969172;28;20092;-44
2021/03/10 09:38:34;;;;;;;13.98;7.80;;;;;;;5.49;38.93;101245.75;4969054;28;20091;-43
2021/03/10 09:41:03;;;;;;;12.07;7.10;;;;;;;6.48;35.78;101244.25;4970448;28;20046;-44
2021/03/10 09:43:31;;;;;;;15.18;5.82;;;;;;;6.19;37.50;101247.78;4965030;28;20058;-46
2021/03/10 09:46:01;;;;;;;14.00;6.60;;;;;;;6.67;36.45;101248.59;4969976;28;20046;-47
2021/03/10 09:48:38;;;;;;;9.45;5.93;;;;;;;7.07;35.50;101244.66;4964084;28;20073;-46
2021/03/10 09:51:08;;;;;;;8.13;5.95;;;;;;;7.12;35.54;101240.66;4963681;28;20433;-48
2021/03/10 09:53:48;;;;;;;9.73;5.53;;;;;;;7.88;33.10;101234.84;4968268;28;20054;-49
2021/03/10 09:56:20;;;;;;;9.68;6.18;;;;;;;8.20;32.80;101228.63;4964115;28;20410;-47
2021/03/10 09:59:00;;;;;;;8.88;5.30;;;;;;;7.11;32.49;101233.81;4968493;28;20522;-44
2021/03/10 10:01:29;;;;;;;14.27;6.10;;;;;;;7.44;32.98;101231.13;4964026;28;20398;-49
2021/03/10 10:03:57;;;;;;;5.55;4.47;;;;;;;6.88;33.03;101231.81;4968878;28;20058;-45
2021/03/10 10:06:24;;;;;;;9.40;5.15;;;;;;;6.85;32.46;101227.47;4968488;28;20073;-46
2021/03/10 10:08:51;;;;;;;7.90;4.63;;;;;;;6.88;32.95;101229.25;4969117;28;20047;-45
2021/03/10 10:11:20;;;;;;;15.55;5.35;;;;;;;7.90;32.75;101234.13;4969721;28;20046;-49
2021/03/10 10:13:48;;;;;;;7.63;4.50;;;;;;;8.05;29.33;101236.47;4968302;28;20109;-45
2021/03/10 10:16:16;;;;;;;7.88;5.10;;;;;;;8.16;30.51;101236.94;4965161;28;20050;-43
2021/03/10 10:18:44;;;;;;;7.35;5.13;;;;;;;8.57;31.36;101243.88;4963252;28;20055;-43
2021/03/10 10:21:11;;;;;;;11.25;5.10;;;;;;;8.69;29.88;101243.53;4963520;28;20552;-47
2021/03/10 10:23:38;;;;;;;6.05;3.55;;;;;;;9.83;25.25;101254.03;4966084;28;20054;-49
2021/03/10 10:26:05;;;;;;;6.82;4.07;;;;;;;9.27;27.55;101255.25;4967635;28;20065;-49
2021/03/10 10:28:31;;;;;;;5.40;3.78;;;;;;;10.78;24.52;101257.47;4968037;28;20072;-48
2021/03/10 10:30:59;;;;;;;5.55;3.83;;;;;;;12.10;21.87;101247.94;4971608;28;20061;-47
2021/03/10 10:33:28;;;;;;;6.68;4.60;;;;;;;13.59;21.66;101255.19;4968304;28;20039;-43
2021/03/10 10:35:55;;;;;;;5.88;4.55;;;;;;;12.34;24.73;101246.88;4968528;28;20053;-46
2021/03/10 10:38:22;;;;;;;5.82;3.88;;;;;;;13.59;20.98;101255.19;4968924;28;20432;-43
2021/03/10 10:40:48;;;;;;;10.23;4.82;;;;;;;14.63;20.60;101253.88;4968114;28;20058;-47
2021/03/10 10:43:15;;;;;;;4.90;4.30;;;;;;;14.04;21.49;101256.13;4969476;28;20042;-45
2021/03/10 10:45:41;;;;;;;7.38;5.15;;;;;;;12.67;23.33;101247.78;4967755;28;20078;-45
2021/03/10 10:48:08;;;;;;;8.00;5.05;;;;;;;12.60;22.94;101248.44;4969481;28;20136;-50
2021/03/10 10:50:36;;;;;;;7.88;5.63;;;;;;;15.85;20.17;101253.22;4967664;28;20417;-45
2021/03/10 10:53:04;;;;;;;7.43;4.93;;;;;;;12.92;22.02;101239.00;4969486;28;20065;-48
2021/03/10 10:55:31;;;;;;;8.57;5.05;;;;;;;12.76;22.99;101236.88;4967919;28;20503;-49
2021/03/10 10:57:59;;;;;;;7.05;5.32;;;;;;;16.37;17.79;101246.13;4969165;28;20544;-46
2021/03/10 11:00:27;;;;;;;8.10;5.55;;;;;;;15.19;19.19;101229.03;4968229;28;20120;-44
2021/03/10 11:02:54;;;;;;;7.85;5.60;;;;;;;14.27;20.58;101229.13;4968480;28;20050;-46
2021/03/10 11:05:22;;;;;;;8.48;6.82;;;;;;;14.42;21.46;101228.53;4969016;28;20531;-46
2021/03/10 11:07:48;;;;;;;9.15;6.30;;;;;;;15.28;20.21;101230.91;4968154;28;20051;-46
2021/03/10 11:10:15;;;;;;;9.20;6.90;;;;;;;14.06;22.17;101232.16;4969659;28;20054;-47
2021/03/10 11:12:41;;;;;;;8.80;7.20;;;;;;;17.10;18.80;101233.06;4967494;28;20480;-47
2021/03/10 11:15:08;;;;;;;10.65;7.25;;;;;;;15.06;20.82;101227.09;4969739;28;20050;-50
2021/03/10 11:17:36;;;;;;;8.38;7.07;;;;;;;15.45;20.42;101224.28;4967766;28;20082;-50
2021/03/10 11:20:06;;;;;;;11.30;7.47;;;;;;;13.74;21.68;101218.63;4969362;28;20150;-45
2021/03/10 11:22:34;;;;;;;8.95;6.97;;;;;;;14.29;20.92;101224.88;4967658;28;20488;-49
2021/03/10 11:25:03;;;;;;;9.30;7.47;;;;;;;14.20;22.57;101223.00;4967877;28;20055;-45
2021/03/10 11:27:30;;;;;;;10.88;7.78;;;;;;;15.14;21.67;101212.63;4962950;28;20058;-47
2021/03/10 11:29:57;;;;;;;11.85;8.10;;;;;;;15.37;20.40;101205.22;4968849;28;20431;-45
2021/03/10 11:32:23;;;;;;;11.18;7.78;;;;;;;16.10;20.64;101199.31;4967992;28;20051;-49